Langdon, ND

10:03 AM CST on February 24, 2017 (GMT -0600)
Langdon

Weather History for KD55 - July, 2013

Change the Weather History Date:

Thursday, July 18, 2013

  Actual Average (KDVL) Record (KDVL)
Temperature  
Mean Temperature 67 °F -  
Max Temperature 77 °F 80 °F 100 °F (1974)
Min Temperature 57 °F 58 °F 47 °F (1951)
Cooling Degree Days 2    
Growing Degree Days 17 (Base 50)    
Moisture  
Dew Point 52 °F    
Average Humidity 56    
Maximum Humidity 69    
Minimum Humidity 52    
Precipitation  
Precipitation 0.36 in - - ()
Sea Level Pressure  
Sea Level Pressure 29.86 in    
Wind  
Wind Speed 10 mph (ENE)    
Max Wind Speed 24 mph    
Max Gust Speed 29 mph    
Visibility 10 miles    
Events Rain , Thunderstorm    
Averages and records for this station are not official NWS values.
T = Trace of Precipitation, MM = Missing Value Source: NWS Daily Summary

Daily Weather History Graph

Daily Weather History Graph

Search for Another Location

Airport or City:

Trip Planner

Search our weather history database for the weather conditions in past years. The results will help you decide how hot, cold, wet, or windy it might be!

Date:

Astronomy

Jul. 18, 2013 Rise Set
Actual Time 5:50 AM CDT 9:28 PM CDT
Civil Twilight 5:10 AM CDT 10:08 PM CDT
Nautical Twilight 4:16 AM CDT 11:01 PM CDT
Astronomical Twilight 3:00 AM CDT 12:16 AM CDT
Moon 5:24 PM CDT (7/18) 1:47 AM CDT (7/18)
Length of Visible Light 16h 57m
Length of Day
15h 38m
Waxing Gibbous, 77% of the Moon is Illuminated
Jul 18
Waxing Gibbous
Jul 22
Full
Jul 29
Last Quarter
Aug 6
New
Aug 14
First Quarter

Hourly Weather History & Observations

Time (CDT) Temp. Dew Point Humidity Pressure Visibility Wind Dir Wind Speed Gust Speed Precip Events Conditions
12:15 AM 64.4 °F 48.2 °F 56% 30.08 in 10.0 mi East 9.2 mph - N/A   Scattered Clouds
12:35 AM 64.4 °F 48.2 °F 56% 30.07 in 10.0 mi East 8.1 mph - N/A   Mostly Cloudy
12:55 AM 64.4 °F 48.2 °F 56% 30.06 in 10.0 mi ESE 6.9 mph - N/A   Overcast
1:15 AM 64.4 °F 48.2 °F 56% 30.05 in 10.0 mi East 9.2 mph - N/A   Overcast
1:35 AM 64.4 °F 48.2 °F 56% 30.04 in 10.0 mi ENE 9.2 mph - N/A   Overcast
1:55 AM 64.4 °F 48.2 °F 56% 30.05 in 10.0 mi NNE 8.1 mph - N/A   Overcast
2:15 AM 62.6 °F 46.4 °F 55% 30.02 in 1.8 mi ENE 15.0 mph - 0.26 in Rain , Thunderstorm Light Rain
2:35 AM 60.8 °F 44.6 °F 55% 30.02 in 10.0 mi East 17.3 mph 24.2 mph 0.26 in   Overcast
2:55 AM 60.8 °F 44.6 °F 55% 30.01 in 10.0 mi East 13.8 mph 19.6 mph 0.26 in   Mostly Cloudy
3:15 AM 60.8 °F 44.6 °F 55% 30.00 in 10.0 mi East 11.5 mph - N/A   Mostly Cloudy
3:35 AM 60.8 °F 44.6 °F 55% 30.00 in 10.0 mi NE 9.2 mph 17.3 mph N/A   Mostly Cloudy
3:55 AM 57.2 °F 42.8 °F 59% 30.00 in 10.0 mi NNE 10.4 mph - N/A   Overcast
4:15 AM 57.2 °F 41.0 °F 55% 29.99 in 10.0 mi NNE 12.7 mph - N/A   Mostly Cloudy
4:35 AM 57.2 °F 42.8 °F 59% 29.99 in 10.0 mi ENE 17.3 mph 23.0 mph N/A Thunderstorm Thunderstorm
4:55 AM 59.0 °F 44.6 °F 59% 29.95 in 10.0 mi East 24.2 mph 28.8 mph N/A   Mostly Cloudy
5:15 AM 60.8 °F 44.6 °F 55% 29.93 in 10.0 mi East 20.7 mph 28.8 mph N/A   Overcast
5:35 AM 62.6 °F 46.4 °F 55% 29.91 in 10.0 mi ESE 16.1 mph - N/A   Overcast
5:55 AM 62.6 °F 46.4 °F 55% 29.91 in 10.0 mi ESE 11.5 mph - N/A   Overcast
6:15 AM 62.6 °F 46.4 °F 55% 29.93 in 10.0 mi East 6.9 mph 20.7 mph N/A   Overcast
6:35 AM 60.8 °F 44.6 °F 55% 29.95 in 10.0 mi Calm Calm - N/A   Mostly Cloudy
6:55 AM 60.8 °F 44.6 °F 55% 29.93 in 10.0 mi East 4.6 mph - N/A   Overcast
7:15 AM 60.8 °F 44.6 °F 55% 29.91 in 10.0 mi East 8.1 mph - N/A   Mostly Cloudy
7:35 AM 62.6 °F 46.4 °F 55% 29.91 in 10.0 mi ESE 6.9 mph - N/A   Mostly Cloudy
7:55 AM 62.6 °F 46.4 °F 55% 29.90 in 10.0 mi ESE 8.1 mph - N/A   Scattered Clouds
8:15 AM 64.4 °F 48.2 °F 56% 29.89 in 10.0 mi SE 8.1 mph - N/A   Clear
8:35 AM 66.2 °F 50.0 °F 56% 29.88 in 10.0 mi ESE 8.1 mph - N/A   Clear
8:55 AM 68.0 °F 51.8 °F 56% 29.87 in 10.0 mi ESE 5.8 mph - N/A   Clear
9:15 AM 69.8 °F 53.6 °F 56% 29.86 in 10.0 mi ESE 8.1 mph - N/A   Partly Cloudy
9:35 AM 71.6 °F 53.6 °F 53% 29.87 in 10.0 mi SE 8.1 mph - N/A   Partly Cloudy
9:55 AM 71.6 °F 55.4 °F 57% 29.85 in 10.0 mi ESE 9.2 mph - N/A   Clear
10:15 AM 71.6 °F 55.4 °F 57% 29.84 in 10.0 mi SE 10.4 mph - N/A   Clear
10:35 AM 73.4 °F 55.4 °F 53% 29.83 in 10.0 mi SE 10.4 mph - N/A   Clear
10:55 AM 73.4 °F 55.4 °F 53% 29.83 in 10.0 mi SE 11.5 mph - N/A   Clear
11:15 AM 73.4 °F 57.2 °F 57% 29.84 in 10.0 mi ESE 9.2 mph - N/A   Clear
11:35 AM 73.4 °F 57.2 °F 57% 29.83 in 10.0 mi SE 4.6 mph - N/A   Clear
11:55 AM 75.2 °F 57.2 °F 53% 29.83 in 10.0 mi ESE 3.5 mph - N/A   Clear
12:15 PM 75.2 °F 57.2 °F 53% 29.84 in 10.0 mi NNE 4.6 mph - N/A   Mostly Cloudy
12:35 PM 75.2 °F 59.0 °F 57% 29.83 in 10.0 mi ENE 3.5 mph - N/A   Mostly Cloudy
12:55 PM 77.0 °F 66.2 °F 69% 29.82 in 10.0 mi Calm Calm - N/A   Mostly Cloudy
1:15 PM 77.0 °F 64.4 °F 65% 29.81 in 10.0 mi SE 3.5 mph - N/A   Partly Cloudy
1:35 PM 77.0 °F 59.0 °F 54% 29.81 in 10.0 mi Calm Calm - N/A   Mostly Cloudy
1:55 PM 75.2 °F 57.2 °F 53% 29.81 in 10.0 mi North 10.4 mph - N/A   Overcast
2:15 PM 75.2 °F 59.0 °F 57% 29.80 in 10.0 mi North 10.4 mph - N/A   Mostly Cloudy
2:35 PM 73.4 °F 57.2 °F 57% 29.80 in 10.0 mi NNE 6.9 mph - N/A   Mostly Cloudy
2:55 PM 75.2 °F 59.0 °F 57% 29.79 in 10.0 mi NE 6.9 mph - N/A   Mostly Cloudy
3:15 PM 75.2 °F 57.2 °F 53% 29.79 in 10.0 mi NNE 8.1 mph - N/A   Overcast
3:35 PM 75.2 °F 57.2 °F 53% 29.79 in 10.0 mi NNW 10.4 mph - N/A   Overcast
3:55 PM 75.2 °F 57.2 °F 53% 29.78 in 10.0 mi NW 9.2 mph - N/A   Overcast
4:15 PM 75.2 °F 57.2 °F 53% 29.78 in 10.0 mi WNW 10.4 mph - N/A   Unknown
5:35 PM 77.0 °F 59.0 °F 54% 29.75 in 10.0 mi West 5.8 mph - N/A   Mostly Cloudy
5:55 PM 75.2 °F 59.0 °F 57% 29.75 in 10.0 mi WSW 4.6 mph - N/A   Mostly Cloudy
6:15 PM 77.0 °F 59.0 °F 54% 29.74 in 10.0 mi WSW 8.1 mph - N/A   Overcast
6:35 PM 77.0 °F 59.0 °F 54% 29.73 in 10.0 mi WSW 8.1 mph - N/A   Mostly Cloudy
6:55 PM 77.0 °F 60.8 °F 57% 29.73 in 10.0 mi West 6.9 mph - N/A   Mostly Cloudy
7:15 PM 75.2 °F 59.0 °F 57% 29.73 in 10.0 mi West 5.8 mph - N/A   Mostly Cloudy
7:35 PM 77.0 °F 60.8 °F 57% 29.73 in 10.0 mi West 16.1 mph 21.9 mph N/A   Mostly Cloudy
7:55 PM 75.2 °F 59.0 °F 57% 29.73 in 10.0 mi West 13.8 mph 17.3 mph N/A   Partly Cloudy
8:15 PM 73.4 °F 55.4 °F 53% 29.71 in 10.0 mi WSW 5.8 mph - N/A Thunderstorm Clear
8:35 PM 71.6 °F 55.4 °F 57% 29.73 in 2.0 mi WSW 19.6 mph 25.3 mph 0.05 in Rain , Thunderstorm Light Rain
8:55 PM 68.0 °F 50.0 °F 52% 29.73 in 10.0 mi WSW 12.7 mph - 0.10 in   Mostly Cloudy
9:15 PM 68.0 °F 55.4 °F 64% 29.73 in 10.0 mi NW 11.5 mph - N/A   Mostly Cloudy
9:35 PM 66.2 °F 50.0 °F 56% 29.72 in 10.0 mi NW 6.9 mph - N/A   Mostly Cloudy
9:55 PM 66.2 °F 48.2 °F 52% 29.73 in 10.0 mi West 9.2 mph - N/A   Clear
10:15 PM 64.4 °F 48.2 °F 56% 29.73 in 10.0 mi West 9.2 mph - N/A   Clear
10:35 PM 64.4 °F 48.2 °F 56% 29.73 in 10.0 mi West 11.5 mph - N/A   Clear
10:55 PM 64.4 °F 48.2 °F 56% 29.75 in 10.0 mi WNW 18.4 mph 25.3 mph N/A   Clear
11:15 PM 64.4 °F 48.2 °F 56% 29.75 in 10.0 mi WNW 19.6 mph 25.3 mph N/A   Clear
11:35 PM 64.4 °F 46.4 °F 52% 29.76 in 10.0 mi NW 17.3 mph 26.5 mph N/A   Clear
11:55 PM 62.6 °F 46.4 °F 55% 29.77 in 10.0 mi NW 12.7 mph - N/A   Partly Cloudy